Time;durP1;ratioP1;P1;durP2;ratioP2;P2;SDS_P1;SDS_P2;PMS_P1;PMS_P2;Temp;Humidity;BMP_temperature;BMP_pressure;BME280_temperature;BME280_humidity;BME280_pressure;Samples;Min_cycle;Max_cycle;Signal;HPM_P1;HPM_P2
2021/12/20 00:01:53;;;;;;;;;;;20.10;58.20;;;;;;5006833;28;1906;-71
2021/12/20 00:04:19;;;;;;;;;;;20.10;58.20;;;;;;5014638;28;1110;-72
2021/12/20 00:06:44;;;;;;;;;;;20.10;58.20;;;;;;5014169;28;1328;-70
2021/12/20 00:09:10;;;;;;;;;;;20.10;58.20;;;;;;5009511;28;1383;-71
2021/12/20 00:11:35;;;;;;;;;;;20.10;58.30;;;;;;5010018;28;1092;-71
2021/12/20 00:14:00;;;;;;;;;;;20.00;58.20;;;;;;4996554;28;1272;-71
2021/12/20 00:16:26;;;;;;;;;;;20.00;58.30;;;;;;5002907;28;1421;-71
2021/12/20 00:18:51;;;;;;;;;;;20.00;58.30;;;;;;4994196;28;1977;-71
2021/12/20 00:21:17;;;;;;;;;;;20.00;58.30;;;;;;4994353;28;1910;-70
2021/12/20 00:23:42;;;;;;;;;;;20.00;58.30;;;;;;4990487;28;1387;-70
2021/12/20 00:26:09;;;;;;;;;;;20.00;58.30;;;;;;5004622;28;1296;-71
2021/12/20 00:28:35;;;;;;;;;;;20.00;58.30;;;;;;4996720;28;1369;-71
2021/12/20 00:31:00;;;;;;;;;;;20.00;58.40;;;;;;4996135;28;1281;-71
2021/12/20 00:33:28;;;;;;;;;;;20.00;58.30;;;;;;4996040;28;1322;-71
2021/12/20 00:35:53;;;;;;;;;;;20.00;58.40;;;;;;5002343;28;1283;-68
2021/12/20 00:41:03;;;;;;;;;;;20.00;58.40;;;;;;4995783;28;1969;-70
2021/12/20 00:43:28;;;;;;;;;;;20.00;58.40;;;;;;5008397;28;2036;-71
2021/12/20 00:45:54;;;;;;;;;;;20.00;58.40;;;;;;5004827;28;1058;-71
2021/12/20 00:48:19;;;;;;;;;;;19.90;58.30;;;;;;5004024;28;1087;-71
2021/12/20 00:50:45;;;;;;;;;;;20.00;58.50;;;;;;4995187;28;1354;-70
2021/12/20 00:53:10;;;;;;;;;;;20.00;58.50;;;;;;4994040;28;1308;-71
2021/12/20 00:55:35;;;;;;;;;;;20.00;58.50;;;;;;4989092;28;998;-71
2021/12/20 00:58:01;;;;;;;;;;;20.00;58.50;;;;;;4999881;28;1526;-72
2021/12/20 01:00:28;;;;;;;;;;;20.00;58.50;;;;;;5006392;28;1128;-70
2021/12/20 01:02:53;;;;;;;;;;;20.00;58.50;;;;;;4983031;28;1902;-71
2021/12/20 01:05:19;;;;;;;;;;;20.00;58.50;;;;;;4995103;28;1341;-71
2021/12/20 01:07:44;;;;;;;;;;;19.90;58.50;;;;;;4993290;28;1374;-70
2021/12/20 01:10:10;;;;;;;;;;;19.90;58.50;;;;;;4989946;28;1195;-72
2021/12/20 01:12:44;;;;;;;;;;;19.90;58.50;;;;;;4994475;28;1327;-69
2021/12/20 01:15:10;;;;;;;;;;;19.90;58.50;;;;;;4987938;28;1321;-69
2021/12/20 01:17:35;;;;;;;;;;;19.90;58.50;;;;;;5012821;28;1354;-69
2021/12/20 01:20:01;;;;;;;;;;;19.90;58.50;;;;;;5013435;28;1324;-70
2021/12/20 01:22:26;;;;;;;;;;;19.90;58.50;;;;;;5012844;28;1956;-69
2021/12/20 01:24:51;;;;;;;;;;;19.90;58.50;;;;;;5013114;28;1373;-68
2021/12/20 01:27:17;;;;;;;;;;;19.90;58.60;;;;;;5012782;28;1335;-69
2021/12/20 01:29:42;;;;;;;;;;;19.90;58.60;;;;;;5012798;28;1347;-68
2021/12/20 01:32:08;;;;;;;;;;;19.90;58.60;;;;;;5012773;28;1353;-68
2021/12/20 01:34:33;;;;;;;;;;;19.90;58.60;;;;;;5013178;28;1272;-68
2021/12/20 01:36:59;;;;;;;;;;;19.90;58.60;;;;;;5012661;28;1268;-70
2021/12/20 01:39:24;;;;;;;;;;;19.90;58.60;;;;;;5013065;28;1256;-69
2021/12/20 01:41:52;;;;;;;;;;;19.90;58.60;;;;;;5012751;28;1894;-68
2021/12/20 01:44:18;;;;;;;;;;;19.90;58.60;;;;;;5011483;28;1302;-69
2021/12/20 01:46:43;;;;;;;;;;;19.90;58.60;;;;;;4995048;28;1332;-69
2021/12/20 01:49:12;;;;;;;;;;;19.90;58.60;;;;;;4999177;28;1366;-69
2021/12/20 01:52:02;;;;;;;;;;;19.90;58.60;;;;;;4993227;28;1069;-71
2021/12/20 01:54:28;;;;;;;;;;;19.90;58.70;;;;;;4994577;28;1340;-71
2021/12/20 01:56:53;;;;;;;;;;;19.90;58.70;;;;;;5012691;28;1260;-71
2021/12/20 01:59:19;;;;;;;;;;;19.90;58.70;;;;;;4995119;28;1506;-70
2021/12/20 02:01:45;;;;;;;;;;;19.90;58.70;;;;;;4994973;28;1957;-71
2021/12/20 02:04:12;;;;;;;;;;;19.90;58.70;;;;;;5012669;28;1421;-71
2021/12/20 02:06:45;;;;;;;;;;;19.80;58.60;;;;;;4994998;28;1089;-69
2021/12/20 02:09:11;;;;;;;;;;;19.90;58.70;;;;;;5003553;28;1289;-71
2021/12/20 02:11:37;;;;;;;;;;;19.80;58.70;;;;;;5009089;28;1115;-71
2021/12/20 02:14:03;;;;;;;;;;;19.80;58.70;;;;;;5012513;28;1391;-71
2021/12/20 02:16:28;;;;;;;;;;;19.80;58.70;;;;;;4996163;28;1339;-70
2021/12/20 02:18:54;;;;;;;;;;;19.80;58.70;;;;;;4998134;28;1310;-71
2021/12/20 02:21:19;;;;;;;;;;;19.80;58.70;;;;;;4996733;28;1963;-72
2021/12/20 02:23:45;;;;;;;;;;;19.80;58.70;;;;;;4996439;28;1346;-71
2021/12/20 02:26:12;;;;;;;;;;;19.80;58.70;;;;;;4979027;28;1297;-70
2021/12/20 02:28:43;;;;;;;;;;;19.80;58.70;;;;;;4996546;28;1371;-69
2021/12/20 02:39:25;;;;;;;;;;;19.80;58.60;;;;;;4979736;28;1293;-69
2021/12/20 02:41:50;;;;;;;;;;;19.80;58.60;;;;;;5015977;28;1902;-69
2021/12/20 02:44:20;;;;;;;;;;;19.90;58.70;;;;;;5016070;28;1072;-69
2021/12/20 02:47:14;;;;;;;;;;;19.90;58.60;;;;;;5015667;28;1273;-69
2021/12/20 02:49:32;;;;;;;;;;;19.90;58.60;;;;;;5015309;28;1296;-69
2021/12/20 02:52:00;;;;;;;;;;;19.90;58.50;;;;;;4997971;28;1287;-69
2021/12/20 02:54:25;;;;;;;;;;;20.00;58.40;;;;;;4998381;28;1332;-69
2021/12/20 02:56:51;;;;;;;;;;;20.00;58.30;;;;;;5004391;28;1184;-68
2021/12/20 02:59:16;;;;;;;;;;;20.00;58.30;;;;;;4995888;28;1381;-70
2021/12/20 03:01:43;;;;;;;;;;;20.00;58.20;;;;;;5005861;28;1898;-69
2021/12/20 03:04:08;;;;;;;;;;;20.00;58.10;;;;;;5015673;28;1403;-69
2021/12/20 03:06:41;;;;;;;;;;;20.10;58.10;;;;;;4997691;28;1376;-69
2021/12/20 03:09:08;;;;;;;;;;;20.10;58.00;;;;;;4998168;28;1371;-69
2021/12/20 03:11:35;;;;;;;;;;;20.10;58.00;;;;;;5011610;28;1112;-69
2021/12/20 03:14:25;;;;;;;;;;;20.20;58.00;;;;;;5015377;28;1336;-69
2021/12/20 03:16:50;;;;;;;;;;;20.20;57.90;;;;;;5014920;28;1104;-70
2021/12/20 03:19:16;;;;;;;;;;;20.20;57.80;;;;;;5015379;28;1302;-69
2021/12/20 03:21:41;;;;;;;;;;;20.20;57.80;;;;;;5014974;28;1965;-70
2021/12/20 03:24:07;;;;;;;;;;;20.20;57.80;;;;;;5015145;28;1684;-70
2021/12/20 03:26:33;;;;;;;;;;;20.20;57.70;;;;;;4995732;28;1352;-69
2021/12/20 03:28:58;;;;;;;;;;;20.20;57.70;;;;;;4997429;28;1348;-69
2021/12/20 03:31:23;;;;;;;;;;;20.20;57.70;;;;;;5005689;28;1212;-70
2021/12/20 03:33:49;;;;;;;;;;;20.20;57.70;;;;;;5004820;28;1294;-69
2021/12/20 03:36:14;;;;;;;;;;;20.20;57.70;;;;;;5005562;28;1260;-70
2021/12/20 03:38:40;;;;;;;;;;;20.20;57.70;;;;;;5008194;28;1335;-71
2021/12/20 03:41:05;;;;;;;;;;;20.20;57.70;;;;;;5005632;28;1956;-69
2021/12/20 03:43:31;;;;;;;;;;;20.20;57.70;;;;;;5007291;28;1516;-70
2021/12/20 03:45:57;;;;;;;;;;;20.20;57.70;;;;;;5003361;28;1232;-69
2021/12/20 03:48:23;;;;;;;;;;;20.20;57.60;;;;;;4982016;28;1396;-70
2021/12/20 03:50:48;;;;;;;;;;;20.20;57.70;;;;;;5009039;28;1709;-70
2021/12/20 03:53:14;;;;;;;;;;;20.20;57.60;;;;;;5014343;28;1305;-69
2021/12/20 03:55:39;;;;;;;;;;;20.20;57.60;;;;;;5014290;28;1389;-69
2021/12/20 03:58:05;;;;;;;;;;;20.20;57.60;;;;;;5014467;28;1345;-70
2021/12/20 04:00:31;;;;;;;;;;;20.20;57.60;;;;;;5014640;28;1378;-70
2021/12/20 04:02:56;;;;;;;;;;;20.20;57.60;;;;;;5014478;28;1915;-69
2021/12/20 04:05:22;;;;;;;;;;;20.20;57.60;;;;;;5014434;28;1408;-70
2021/12/20 04:07:47;;;;;;;;;;;20.20;57.60;;;;;;5014090;28;1315;-69
2021/12/20 04:10:12;;;;;;;;;;;20.20;57.60;;;;;;5006067;28;1185;-69
2021/12/20 04:12:38;;;;;;;;;;;20.30;57.60;;;;;;5014311;28;1332;-69
2021/12/20 04:15:05;;;;;;;;;;;20.20;57.60;;;;;;5014277;28;1147;-69
2021/12/20 04:17:31;;;;;;;;;;;20.30;57.60;;;;;;5014053;28;1296;-70
2021/12/20 04:19:56;;;;;;;;;;;20.30;57.60;;;;;;5014034;28;1307;-69
2021/12/20 04:22:22;;;;;;;;;;;20.30;57.60;;;;;;5014015;28;1910;-69
2021/12/20 04:24:47;;;;;;;;;;;20.30;57.60;;;;;;5013963;28;1339;-69
2021/12/20 04:27:12;;;;;;;;;;;20.30;57.50;;;;;;5013912;28;1072;-70
2021/12/20 04:29:38;;;;;;;;;;;20.30;57.50;;;;;;4995899;28;1344;-69
2021/12/20 04:32:03;;;;;;;;;;;20.30;57.50;;;;;;4980478;28;1309;-69
2021/12/20 04:34:29;;;;;;;;;;;20.30;57.50;;;;;;5007608;28;1296;-69
2021/12/20 04:36:54;;;;;;;;;;;20.30;57.50;;;;;;4996099;28;1125;-69
2021/12/20 04:39:24;;;;;;;;;;;20.30;57.50;;;;;;4999966;28;1286;-70
2021/12/20 04:41:50;;;;;;;;;;;20.30;57.50;;;;;;5001033;28;1961;-69
2021/12/20 04:44:15;;;;;;;;;;;20.30;57.50;;;;;;5013738;28;1342;-69
2021/12/20 04:46:40;;;;;;;;;;;20.30;57.50;;;;;;5013479;28;993;-69
2021/12/20 04:49:06;;;;;;;;;;;20.30;57.40;;;;;;5013782;28;1347;-69
2021/12/20 04:51:31;;;;;;;;;;;20.30;57.40;;;;;;5013557;28;1331;-69
2021/12/20 04:53:57;;;;;;;;;;;20.30;57.40;;;;;;5013549;28;1690;-69
2021/12/20 04:56:22;;;;;;;;;;;20.30;57.40;;;;;;5013381;28;1387;-69
2021/12/20 04:58:48;;;;;;;;;;;20.30;57.40;;;;;;5013690;28;1316;-69
2021/12/20 05:01:13;;;;;;;;;;;20.30;57.40;;;;;;5013185;28;1910;-70
2021/12/20 05:03:38;;;;;;;;;;;20.30;57.40;;;;;;5013479;28;1336;-69
2021/12/20 05:06:04;;;;;;;;;;;20.30;57.40;;;;;;5012924;28;1060;-70
2021/12/20 05:08:35;;;;;;;;;;;20.30;57.40;;;;;;5009753;28;1405;-70
2021/12/20 05:11:00;;;;;;;;;;;20.30;57.40;;;;;;5008929;28;1324;-69
2021/12/20 05:13:26;;;;;;;;;;;20.30;57.40;;;;;;5013270;28;1350;-69
2021/12/20 05:15:51;;;;;;;;;;;20.30;57.30;;;;;;5013037;28;933;-69
2021/12/20 05:18:17;;;;;;;;;;;20.30;57.30;;;;;;5013268;28;1276;-69
2021/12/20 05:20:42;;;;;;;;;;;20.30;57.30;;;;;;5013042;28;1151;-69
2021/12/20 05:23:08;;;;;;;;;;;20.30;57.40;;;;;;5013053;28;1974;-69
2021/12/20 05:25:34;;;;;;;;;;;20.30;57.30;;;;;;5012965;28;1500;-69
2021/12/20 05:27:59;;;;;;;;;;;20.30;57.40;;;;;;5012906;28;1418;-69
2021/12/20 05:30:24;;;;;;;;;;;20.30;57.30;;;;;;4995478;28;1408;-69
2021/12/20 05:32:50;;;;;;;;;;;20.30;57.30;;;;;;5000959;28;1379;-70
2021/12/20 05:35:15;;;;;;;;;;;20.30;57.30;;;;;;4993498;28;1338;-70
2021/12/20 05:37:41;;;;;;;;;;;20.30;57.30;;;;;;4992908;28;1320;-69
2021/12/20 05:40:07;;;;;;;;;;;20.30;57.30;;;;;;4993484;28;1363;-69
2021/12/20 05:42:32;;;;;;;;;;;20.30;57.30;;;;;;4984466;28;1902;-70
2021/12/20 05:44:58;;;;;;;;;;;20.30;57.30;;;;;;5012041;28;1457;-70
2021/12/20 05:47:23;;;;;;;;;;;20.30;57.30;;;;;;4995108;28;1263;-70
2021/12/20 05:49:49;;;;;;;;;;;20.40;57.30;;;;;;4995204;28;1332;-70
2021/12/20 05:52:15;;;;;;;;;;;20.30;57.30;;;;;;4987917;28;1355;-70
2021/12/20 05:54:40;;;;;;;;;;;20.30;57.30;;;;;;5015865;28;1380;-69
2021/12/20 05:57:05;;;;;;;;;;;20.40;57.40;;;;;;5016518;28;1264;-70
2021/12/20 05:59:31;;;;;;;;;;;20.30;57.30;;;;;;5017211;28;1315;-69
2021/12/20 06:01:56;;;;;;;;;;;20.30;57.30;;;;;;5016440;28;1967;-69
2021/12/20 06:04:22;;;;;;;;;;;20.30;57.30;;;;;;5016828;28;1319;-70
2021/12/20 06:06:47;;;;;;;;;;;20.30;57.30;;;;;;5016181;28;1264;-69
2021/12/20 06:09:13;;;;;;;;;;;20.30;57.30;;;;;;5012709;28;1254;-70
2021/12/20 06:11:38;;;;;;;;;;;20.40;57.30;;;;;;4995713;28;1160;-70
2021/12/20 06:14:04;;;;;;;;;;;20.30;57.30;;;;;;5015323;28;1622;-69
2021/12/20 06:16:29;;;;;;;;;;;20.30;57.30;;;;;;5016391;28;1331;-69
2021/12/20 06:18:55;;;;;;;;;;;20.30;57.20;;;;;;5016318;28;1363;-69
2021/12/20 06:21:20;;;;;;;;;;;20.40;57.30;;;;;;5014924;28;1918;-69
2021/12/20 06:23:45;;;;;;;;;;;20.30;57.20;;;;;;5016225;28;1349;-70
2021/12/20 06:26:11;;;;;;;;;;;20.40;57.30;;;;;;4998633;28;1329;-69
2021/12/20 06:28:36;;;;;;;;;;;20.30;57.20;;;;;;4998303;28;1379;-69
2021/12/20 06:31:02;;;;;;;;;;;20.40;57.30;;;;;;4996636;28;1268;-69
2021/12/20 06:33:27;;;;;;;;;;;20.40;57.30;;;;;;4993480;28;1391;-69
2021/12/20 06:35:53;;;;;;;;;;;20.30;57.80;;;;;;5007184;28;1070;-69
2021/12/20 06:38:20;;;;;;;;;;;20.40;57.30;;;;;;5015143;28;1898;-69
2021/12/20 06:40:46;;;;;;;;;;;20.40;57.30;;;;;;5007024;28;1190;-69
2021/12/20 06:43:11;;;;;;;;;;;20.30;57.20;;;;;;4999498;28;1886;-69
2021/12/20 06:45:37;;;;;;;;;;;20.40;57.30;;;;;;4997367;28;1256;-69
2021/12/20 06:48:02;;;;;;;;;;;20.40;57.30;;;;;;4995108;28;1248;-69
2021/12/20 06:50:28;;;;;;;;;;;20.40;57.30;;;;;;4996084;28;1287;-69
2021/12/20 06:52:53;;;;;;;;;;;20.30;57.20;;;;;;5002678;28;1422;-69
2021/12/20 06:55:19;;;;;;;;;;;20.30;57.20;;;;;;5001901;28;1216;-69
2021/12/20 06:57:44;;;;;;;;;;;20.40;57.30;;;;;;5013006;28;1308;-69
2021/12/20 07:00:10;;;;;;;;;;;20.40;57.30;;;;;;4998103;28;1273;-69
2021/12/20 07:02:35;;;;;;;;;;;20.40;57.20;;;;;;5014823;28;1967;-69
2021/12/20 07:05:01;;;;;;;;;;;20.30;57.20;;;;;;5015384;28;1276;-70
2021/12/20 07:07:28;;;;;;;;;;;20.40;57.30;;;;;;5008757;28;1197;-69
2021/12/20 07:09:53;;;;;;;;;;;20.30;57.20;;;;;;4999751;28;1131;-69
2021/12/20 07:12:18;;;;;;;;;;;20.30;57.20;;;;;;5015156;28;1324;-70
2021/12/20 07:14:44;;;;;;;;;;;20.30;57.20;;;;;;5015599;28;1331;-69
2021/12/20 07:17:09;;;;;;;;;;;20.30;57.20;;;;;;5015054;28;1238;-70
2021/12/20 07:19:35;;;;;;;;;;;20.40;57.30;;;;;;5015187;28;1288;-70
2021/12/20 07:22:00;;;;;;;;;;;20.30;57.20;;;;;;5015042;28;1977;-70
2021/12/20 07:24:26;;;;;;;;;;;20.30;57.20;;;;;;5015364;28;1449;-69
2021/12/20 07:26:51;;;;;;;;;;;20.40;57.30;;;;;;5015014;28;1326;-70
2021/12/20 07:29:17;;;;;;;;;;;20.30;57.20;;;;;;4997729;28;1293;-70
2021/12/20 07:31:43;;;;;;;;;;;20.40;57.20;;;;;;4998779;28;1312;-70
2021/12/20 07:34:10;;;;;;;;;;;20.40;57.30;;;;;;4984200;28;1340;-70
2021/12/20 07:36:35;;;;;;;;;;;20.40;57.30;;;;;;5011205;28;1375;-70
2021/12/20 07:39:01;;;;;;;;;;;20.40;57.20;;;;;;5015099;28;1239;-69
2021/12/20 07:41:26;;;;;;;;;;;20.40;57.30;;;;;;4994418;28;1898;-70
2021/12/20 07:43:52;;;;;;;;;;;20.40;57.20;;;;;;4995608;28;1350;-69
2021/12/20 07:46:17;;;;;;;;;;;20.30;57.20;;;;;;4994848;28;1326;-70
2021/12/20 07:48:43;;;;;;;;;;;20.40;57.20;;;;;;4983653;28;1286;-69
2021/12/20 07:51:08;;;;;;;;;;;20.40;57.20;;;;;;5006848;28;1218;-69
2021/12/20 07:53:34;;;;;;;;;;;20.40;57.20;;;;;;4995234;28;1193;-70
2021/12/20 07:55:59;;;;;;;;;;;20.40;57.30;;;;;;4994702;28;1398;-68
2021/12/20 07:58:25;;;;;;;;;;;20.40;57.10;;;;;;4982658;28;1354;-69
2021/12/20 08:00:50;;;;;;;;;;;20.50;57.00;;;;;;5009268;28;1249;-70
2021/12/20 08:03:16;;;;;;;;;;;20.60;56.90;;;;;;5014820;28;1899;-69
2021/12/20 08:05:41;;;;;;;;;;;20.70;56.80;;;;;;5014084;28;1344;-69
2021/12/20 08:08:07;;;;;;;;;;;20.80;56.70;;;;;;5013893;28;1072;-69
2021/12/20 08:10:32;;;;;;;;;;;20.90;56.50;;;;;;5005709;28;2507;-70
2021/12/20 08:12:57;;;;;;;;;;;21.00;56.20;;;;;;5005725;28;1287;-70
2021/12/20 08:15:23;;;;;;;;;;;21.10;56.00;;;;;;5004360;28;1199;-70
2021/12/20 08:17:49;;;;;;;;;;;21.20;55.80;;;;;;4996408;28;1316;-70
2021/12/20 08:20:14;;;;;;;;;;;21.20;55.60;;;;;;4998646;28;1263;-70
2021/12/20 08:22:40;;;;;;;;;;;21.30;55.50;;;;;;4994532;28;1960;-70
2021/12/20 08:25:06;;;;;;;;;;;21.30;55.30;;;;;;4994821;28;1276;-70
2021/12/20 08:27:31;;;;;;;;;;;21.40;55.30;;;;;;4994204;28;1109;-70
2021/12/20 08:29:56;;;;;;;;;;;21.40;55.20;;;;;;4994509;28;1119;-70
2021/12/20 08:32:22;;;;;;;;;;;21.40;55.00;;;;;;4994065;28;1360;-69
2021/12/20 08:34:47;;;;;;;;;;;21.50;55.00;;;;;;4994847;28;1323;-71
2021/12/20 08:37:13;;;;;;;;;;;21.50;54.90;;;;;;4994017;28;1388;-71
2021/12/20 08:39:38;;;;;;;;;;;21.50;54.90;;;;;;4994341;28;1400;-71
2021/12/20 08:42:04;;;;;;;;;;;21.50;54.90;;;;;;4981517;28;1948;-69
2021/12/20 08:44:30;;;;;;;;;;;21.50;54.90;;;;;;5009018;28;1385;-71
2021/12/20 08:46:55;;;;;;;;;;;21.50;54.90;;;;;;4979667;28;1266;-71
2021/12/20 08:49:21;;;;;;;;;;;21.50;54.90;;;;;;4994983;28;1284;-71
2021/12/20 08:51:46;;;;;;;;;;;21.50;54.90;;;;;;4993781;28;1279;-71
2021/12/20 08:54:12;;;;;;;;;;;21.50;54.90;;;;;;4988933;28;1278;-71
2021/12/20 08:56:38;;;;;;;;;;;21.50;54.90;;;;;;5013254;28;1344;-71
2021/12/20 08:59:03;;;;;;;;;;;21.50;54.90;;;;;;5013552;28;1304;-71
2021/12/20 09:01:28;;;;;;;;;;;21.50;54.90;;;;;;5013328;28;1967;-71
2021/12/20 09:03:54;;;;;;;;;;;21.50;54.90;;;;;;5013235;28;1403;-70
2021/12/20 09:06:23;;;;;;;;;;;21.50;54.90;;;;;;5013297;28;1293;-71
2021/12/20 09:08:49;;;;;;;;;;;21.50;55.00;;;;;;5009037;28;1390;-71
2021/12/20 09:11:15;;;;;;;;;;;21.40;55.00;;;;;;5009679;28;1144;-72
2021/12/20 09:13:41;;;;;;;;;;;21.40;55.00;;;;;;5013264;28;1360;-71
2021/12/20 09:16:07;;;;;;;;;;;21.40;55.10;;;;;;5013020;28;1339;-71
2021/12/20 09:18:32;;;;;;;;;;;21.40;55.10;;;;;;4993721;28;1365;-70
2021/12/20 09:20:58;;;;;;;;;;;21.40;55.10;;;;;;4993628;28;1312;-71
2021/12/20 09:23:26;;;;;;;;;;;21.40;55.20;;;;;;4988975;28;1910;-71
2021/12/20 09:25:52;;;;;;;;;;;21.40;55.20;;;;;;5012631;28;1355;-71
2021/12/20 09:28:18;;;;;;;;;;;21.30;55.20;;;;;;5013475;28;1279;-71
2021/12/20 09:30:45;;;;;;;;;;;21.40;55.30;;;;;;4995609;28;1354;-70
2021/12/20 09:33:10;;;;;;;;;;;21.30;55.30;;;;;;4998053;28;1291;-70
2021/12/20 09:35:35;;;;;;;;;;;21.30;55.30;;;;;;4993587;28;1041;-71
2021/12/20 09:38:05;;;;;;;;;;;21.30;55.30;;;;;;4988245;28;1264;-71
2021/12/20 09:40:33;;;;;;;;;;;21.30;55.40;;;;;;5013058;28;1339;-71
2021/12/20 09:43:02;;;;;;;;;;;21.30;55.40;;;;;;5012810;28;1949;-70
2021/12/20 09:45:27;;;;;;;;;;;21.30;55.50;;;;;;5013180;28;1079;-70
2021/12/20 09:47:53;;;;;;;;;;;21.20;55.40;;;;;;4992420;28;1384;-71
2021/12/20 09:50:18;;;;;;;;;;;21.20;55.50;;;;;;4993445;28;1247;-67
2021/12/20 09:52:43;;;;;;;;;;;21.20;55.50;;;;;;4993392;28;1358;-68
2021/12/20 09:55:09;;;;;;;;;;;21.20;53.80;;;;;;4982059;28;1340;-68
2021/12/20 09:57:35;;;;;;;;;;;21.20;53.20;;;;;;5009031;28;1251;-68
2021/12/20 10:00:01;;;;;;;;;;;21.20;52.20;;;;;;4993250;28;1931;-69
2021/12/20 10:02:26;;;;;;;;;;;21.10;51.80;;;;;;5007806;28;1898;-68
2021/12/20 10:04:53;;;;;;;;;;;21.10;51.50;;;;;;5001200;28;1104;-68
2021/12/20 10:07:23;;;;;;;;;;;21.00;51.00;;;;;;5009120;28;1141;-68
2021/12/20 10:09:48;;;;;;;;;;;21.00;50.10;;;;;;4992600;28;1152;-68
2021/12/20 10:12:24;;;;;;;;;;;20.90;49.90;;;;;;5012429;28;1280;-71
2021/12/20 10:15:08;;;;;;;;;;;20.90;45.40;;;;;;5012718;28;1287;-71
2021/12/20 10:17:49;;;;;;;;;;;20.80;47.70;;;;;;4994930;28;1033;-71
2021/12/20 10:20:19;;;;;;;;;;;20.80;47.80;;;;;;4992485;28;1351;-73
2021/12/20 10:22:44;;;;;;;;;;;20.70;48.00;;;;;;4982091;28;1969;-73
2021/12/20 10:25:19;;;;;;;;;;;20.70;48.60;;;;;;5009192;28;1307;-72
2021/12/20 10:27:44;;;;;;;;;;;20.70;48.80;;;;;;5012383;28;1288;-72
2021/12/20 10:30:20;;;;;;;;;;;20.70;49.10;;;;;;4995020;28;1379;-72
2021/12/20 10:32:46;;;;;;;;;;;20.70;49.40;;;;;;4995078;28;1379;-72
2021/12/20 10:35:27;;;;;;;;;;;20.70;49.70;;;;;;4993931;28;1312;-73
2021/12/20 10:37:53;;;;;;;;;;;20.70;50.10;;;;;;4988785;28;1352;-71
2021/12/20 10:40:19;;;;;;;;;;;20.70;50.40;;;;;;5016087;28;1279;-71
2021/12/20 10:42:44;;;;;;;;;;;20.70;50.70;;;;;;4997856;28;1906;-72
2021/12/20 10:45:11;;;;;;;;;;;20.70;50.90;;;;;;4996560;28;1365;-72
2021/12/20 10:47:37;;;;;;;;;;;20.70;51.10;;;;;;4996207;28;1319;-71
2021/12/20 10:50:32;;;;;;;;;;;20.70;51.30;;;;;;4982817;28;1359;-70
2021/12/20 10:53:11;;;;;;;;;;;20.70;51.50;;;;;;4996508;28;1359;-69
2021/12/20 10:55:41;;;;;;;;;;;20.70;51.60;;;;;;4996151;28;1299;-69
2021/12/20 10:58:16;;;;;;;;;;;20.70;51.80;;;;;;4985446;28;1372;-70
2021/12/20 11:00:42;;;;;;;;;;;20.70;51.90;;;;;;5002730;28;1941;-68
2021/12/20 11:03:27;;;;;;;;;;;20.70;52.00;;;;;;5009839;28;2102;-71
2021/12/20 11:06:41;;;;;;;;;;;20.70;52.10;;;;;;5007083;28;1115;-70
2021/12/20 11:11:30;;;;;;;;;;;20.70;52.30;;;;;;4996203;28;1981;-71
2021/12/20 11:13:56;;;;;;;;;;;20.70;52.40;;;;;;5013940;28;1921;-71
2021/12/20 11:16:26;;;;;;;;;;;20.70;52.40;;;;;;4996351;28;2312;-71
2021/12/20 11:19:06;;;;;;;;;;;20.70;52.50;;;;;;5003513;28;1922;-70
2021/12/20 11:21:32;;;;;;;;;;;20.70;52.60;;;;;;5005286;28;1942;-70
2021/12/20 11:24:01;;;;;;;;;;;20.70;52.70;;;;;;5003837;28;1276;-71
2021/12/20 11:26:29;;;;;;;;;;;20.70;52.80;;;;;;5003781;28;1207;-71
2021/12/20 11:28:54;;;;;;;;;;;20.70;52.90;;;;;;5015320;28;1293;-71
2021/12/20 11:31:20;;;;;;;;;;;20.70;53.00;;;;;;4997001;28;1276;-71
2021/12/20 11:33:45;;;;;;;;;;;20.70;53.00;;;;;;4981937;28;1309;-70
2021/12/20 11:36:11;;;;;;;;;;;20.70;53.10;;;;;;5008873;28;1261;-71
2021/12/20 11:38:37;;;;;;;;;;;20.70;53.20;;;;;;4997566;28;1371;-70
2021/12/20 11:41:02;;;;;;;;;;;20.70;53.20;;;;;;5001253;28;1340;-71
2021/12/20 11:43:28;;;;;;;;;;;20.70;53.30;;;;;;4995485;28;1981;-70
2021/12/20 11:45:53;;;;;;;;;;;20.70;53.30;;;;;;4988038;28;1651;-70
2021/12/20 11:48:19;;;;;;;;;;;20.60;53.30;;;;;;4997023;28;1291;-71
2021/12/20 11:50:44;;;;;;;;;;;20.70;53.40;;;;;;4997365;28;1359;-71
2021/12/20 11:53:13;;;;;;;;;;;20.70;53.50;;;;;;4997015;28;1323;-70
2021/12/20 11:55:50;;;;;;;;;;;20.60;53.50;;;;;;4999728;28;1311;-71
2021/12/20 11:58:19;;;;;;;;;;;20.60;53.50;;;;;;4994963;28;1068;-70
2021/12/20 12:00:48;;;;;;;;;;;20.60;53.50;;;;;;4996590;28;1803;-71
2021/12/20 12:03:18;;;;;;;;;;;20.60;53.60;;;;;;5009495;28;2376;-71
2021/12/20 12:05:48;;;;;;;;;;;20.60;53.60;;;;;;5009375;28;2384;-68
2021/12/20 12:08:23;;;;;;;;;;;20.60;53.70;;;;;;5012287;28;1941;-70
2021/12/20 12:10:49;;;;;;;;;;;20.60;53.80;;;;;;4996035;28;1464;-70
2021/12/20 12:13:16;;;;;;;;;;;20.60;53.80;;;;;;4994422;28;1372;-70
2021/12/20 12:16:00;;;;;;;;;;;20.60;53.80;;;;;;4994473;28;1066;-70
2021/12/20 12:18:45;;;;;;;;;;;20.60;53.90;;;;;;4988512;28;1321;-69
2021/12/20 12:21:29;;;;;;;;;;;20.60;53.90;;;;;;5014406;28;1910;-71
2021/12/20 12:23:54;;;;;;;;;;;20.60;54.00;;;;;;5013969;28;1398;-70
2021/12/20 12:26:33;;;;;;;;;;;20.60;54.00;;;;;;5014017;28;1288;-70
2021/12/20 12:28:58;;;;;;;;;;;20.60;54.00;;;;;;4996645;28;1344;-70
2021/12/20 12:31:24;;;;;;;;;;;20.60;54.00;;;;;;4996339;28;1330;-70
2021/12/20 12:34:08;;;;;;;;;;;20.60;54.00;;;;;;4994429;28;1360;-70
2021/12/20 12:36:39;;;;;;;;;;;20.60;54.00;;;;;;4994050;28;1298;-70
2021/12/20 12:39:08;;;;;;;;;;;20.60;53.90;;;;;;4999528;28;1980;-70
2021/12/20 12:41:41;;;;;;;;;;;20.70;54.00;;;;;;5002709;28;1923;-69
2021/12/20 12:44:08;;;;;;;;;;;20.70;53.90;;;;;;5003602;28;1501;-70
2021/12/20 12:46:36;;;;;;;;;;;20.80;53.80;;;;;;4998994;28;1596;-70
2021/12/20 12:49:20;;;;;;;;;;;20.90;53.60;;;;;;5007524;28;2408;-71
2021/12/20 12:51:46;;;;;;;;;;;20.90;53.50;;;;;;5005647;28;1241;-71
2021/12/20 12:54:30;;;;;;;;;;;21.00;53.50;;;;;;5006691;28;1326;-68
2021/12/20 12:57:09;;;;;;;;;;;21.00;53.40;;;;;;4998139;28;1055;-70
2021/12/20 12:59:41;;;;;;;;;;;21.10;53.30;;;;;;4988908;28;1396;-70
2021/12/20 13:02:10;;;;;;;;;;;21.10;53.20;;;;;;5006785;28;1898;-69
2021/12/20 13:04:54;;;;;;;;;;;21.10;53.10;;;;;;4996188;28;1343;-70
2021/12/20 13:07:35;;;;;;;;;;;21.10;53.10;;;;;;4992948;28;1282;-69
2021/12/20 13:10:03;;;;;;;;;;;21.20;53.10;;;;;;4990106;28;1300;-71
2021/12/20 13:15:03;;;;;;;;;;;21.20;53.10;;;;;;5013643;28;1304;-70
2021/12/20 13:17:29;;;;;;;;;;;21.20;53.10;;;;;;5013086;28;1360;-69
2021/12/20 13:20:07;;;;;;;;;;;21.20;53.10;;;;;;5013144;28;1143;-71
2021/12/20 13:22:33;;;;;;;;;;;21.20;53.10;;;;;;5013098;28;1970;-71
2021/12/20 13:24:58;;;;;;;;;;;21.20;53.10;;;;;;5013206;28;1331;-72
2021/12/20 13:27:28;;;;;;;;;;;21.20;53.10;;;;;;5013370;28;1276;-71
2021/12/20 13:29:53;;;;;;;;;;;21.20;53.10;;;;;;5013184;28;1400;-70
2021/12/20 13:32:19;;;;;;;;;;;21.20;53.20;;;;;;5012993;28;1357;-69
2021/12/20 13:34:45;;;;;;;;;;;21.20;53.20;;;;;;5012879;28;1346;-71
2021/12/20 13:37:12;;;;;;;;;;;21.20;53.20;;;;;;5012898;28;1324;-71
2021/12/20 13:39:38;;;;;;;;;;;21.20;53.20;;;;;;5012974;28;1339;-72
2021/12/20 13:42:06;;;;;;;;;;;21.20;53.20;;;;;;5012868;28;1898;-71
2021/12/20 13:44:32;;;;;;;;;;;21.20;53.20;;;;;;5012868;28;1271;-70
2021/12/20 13:47:01;;;;;;;;;;;21.20;53.20;;;;;;5012616;28;1072;-69
2021/12/20 13:49:27;;;;;;;;;;;21.20;53.30;;;;;;4993551;28;1327;-69
2021/12/20 13:51:56;;;;;;;;;;;21.20;53.30;;;;;;4981918;28;1375;-70
2021/12/20 13:54:21;;;;;;;;;;;21.20;53.30;;;;;;5009333;28;1148;-71
2021/12/20 13:56:55;;;;;;;;;;;21.10;53.30;;;;;;5012751;28;1381;-70
2021/12/20 13:59:31;;;;;;;;;;;21.20;53.40;;;;;;5012854;28;1301;-71
2021/12/20 14:01:57;;;;;;;;;;;21.20;53.50;;;;;;5012549;28;1898;-71
2021/12/20 14:04:26;;;;;;;;;;;21.10;53.50;;;;;;5012804;28;1342;-71
2021/12/20 14:06:51;;;;;;;;;;;21.10;53.50;;;;;;5012630;28;1086;-71
2021/12/20 14:09:23;;;;;;;;;;;21.10;53.50;;;;;;5007936;28;1315;-71
2021/12/20 14:12:05;;;;;;;;;;;21.10;53.60;;;;;;5010353;28;1194;-71
2021/12/20 14:14:30;;;;;;;;;;;21.10;53.60;;;;;;5016900;28;1315;-71
2021/12/20 14:16:58;;;;;;;;;;;21.10;53.70;;;;;;5016586;28;1327;-71
2021/12/20 14:19:43;;;;;;;;;;;21.10;53.70;;;;;;4999083;28;1336;-71
2021/12/20 14:22:08;;;;;;;;;;;21.10;53.70;;;;;;5015121;28;1965;-70
2021/12/20 14:24:37;;;;;;;;;;;21.10;53.80;;;;;;5005697;28;1096;-70
2021/12/20 14:27:03;;;;;;;;;;;21.10;53.80;;;;;;4996726;28;1291;-71
2021/12/20 14:29:32;;;;;;;;;;;21.10;53.80;;;;;;4996990;28;1185;-71
2021/12/20 14:32:00;;;;;;;;;;;21.10;53.90;;;;;;4996539;28;1269;-72
2021/12/20 14:34:34;;;;;;;;;;;21.00;53.80;;;;;;4997370;28;1360;-70
2021/12/20 14:37:09;;;;;;;;;;;21.00;53.90;;;;;;4994824;28;1497;-71
2021/12/20 14:39:42;;;;;;;;;;;21.00;53.90;;;;;;5009426;28;1074;-70
2021/12/20 14:42:07;;;;;;;;;;;21.00;53.90;;;;;;5015970;28;1938;-69
2021/12/20 14:44:42;;;;;;;;;;;21.00;54.00;;;;;;5016102;28;1317;-69
2021/12/20 14:47:14;;;;;;;;;;;21.00;54.00;;;;;;4999682;28;1285;-69
2021/12/20 14:49:45;;;;;;;;;;;21.00;54.00;;;;;;4999396;28;1564;-69